Time;durP1;ratioP1;P1;durP2;ratioP2;P2;SDS_P1;SDS_P2;PMS_P1;PMS_P2;Temp;Humidity;BMP_temperature;BMP_pressure;BME280_temperature;BME280_humidity;BME280_pressure;Samples;Min_cycle;Max_cycle;Signal;HPM_P1;HPM_P2
2021/01/26 00:00:45;;;;;;;21.83;10.77;;;0.70;99.90;;;;;;5008216;28;20049;-77
2021/01/26 00:03:11;;;;;;;19.20;10.27;;;0.70;99.90;;;;;;5007637;28;20391;-77
2021/01/26 00:05:37;;;;;;;24.90;11.30;;;0.70;99.90;;;;;;5007865;28;20549;-77
2021/01/26 00:08:03;;;;;;;22.45;11.10;;;0.70;99.90;;;;;;5007894;28;20720;-77
2021/01/26 00:10:28;;;;;;;25.50;11.68;;;0.70;99.90;;;;;;5012373;28;20041;-77
2021/01/26 00:12:54;;;;;;;23.60;11.90;;;0.70;99.90;;;;;;5009022;28;20617;-77
2021/01/26 00:15:20;;;;;;;21.30;10.45;;;0.70;99.90;;;;;;5007788;28;20038;-76
2021/01/26 00:17:46;;;;;;;20.80;9.98;;;0.70;99.90;;;;;;5012465;28;20034;-76
2021/01/26 00:20:12;;;;;;;17.33;9.48;;;0.80;99.90;;;;;;5012253;28;20034;-77
2021/01/26 00:22:39;;;;;;;21.08;10.90;;;0.80;99.90;;;;;;5009181;28;20060;-78
2021/01/26 00:25:06;;;;;;;18.23;9.38;;;0.70;99.90;;;;;;5013780;28;20417;-77
2021/01/26 00:27:32;;;;;;;20.13;10.02;;;0.70;99.90;;;;;;4988028;28;20030;-77
2021/01/26 00:29:57;;;;;;;20.63;10.98;;;0.80;99.90;;;;;;5007434;28;20080;-77
2021/01/26 00:32:23;;;;;;;20.52;9.93;;;0.70;99.90;;;;;;5000928;28;20574;-77
2021/01/26 00:34:48;;;;;;;19.05;9.45;;;0.70;99.90;;;;;;5006269;28;20038;-77
2021/01/26 00:37:14;;;;;;;18.85;10.73;;;0.70;99.90;;;;;;5008911;28;20033;-77
2021/01/26 00:39:40;;;;;;;22.33;11.05;;;0.70;99.90;;;;;;5008146;28;20058;-77
2021/01/26 00:42:05;;;;;;;20.35;10.27;;;0.60;99.90;;;;;;5008441;28;20088;-77
2021/01/26 00:44:31;;;;;;;22.90;10.88;;;0.60;99.90;;;;;;5018104;28;20030;-77
2021/01/26 00:46:57;;;;;;;20.73;10.82;;;0.60;99.90;;;;;;5015408;28;20534;-76
2021/01/26 00:49:22;;;;;;;19.23;10.60;;;0.60;99.90;;;;;;5011554;28;20062;-77
2021/01/26 00:51:48;;;;;;;21.75;11.05;;;0.60;99.90;;;;;;5007279;28;20038;-78
2021/01/26 00:54:13;;;;;;;18.95;9.70;;;0.60;99.90;;;;;;5007525;28;20038;-76
2021/01/26 00:56:39;;;;;;;25.08;10.27;;;0.60;99.90;;;;;;5009015;28;20037;-77
2021/01/26 00:59:04;;;;;;;20.85;10.25;;;0.60;99.90;;;;;;5008708;28;20068;-77
2021/01/26 01:01:30;;;;;;;20.40;9.90;;;0.60;99.90;;;;;;5000027;28;22732;-77
2021/01/26 01:03:56;;;;;;;20.52;9.85;;;0.60;99.90;;;;;;5009863;28;20030;-77
2021/01/26 01:06:21;;;;;;;24.65;10.88;;;0.60;99.90;;;;;;5013376;28;20050;-77
2021/01/26 01:08:47;;;;;;;18.58;9.90;;;0.60;99.90;;;;;;5006791;28;20041;-77
2021/01/26 01:11:12;;;;;;;15.63;9.02;;;0.60;99.90;;;;;;5006882;28;20057;-77
2021/01/26 01:13:38;;;;;;;17.95;8.77;;;0.50;99.90;;;;;;5010814;28;20048;-77
2021/01/26 01:16:04;;;;;;;19.30;9.25;;;0.50;99.90;;;;;;5011582;28;20421;-77
2021/01/26 01:18:29;;;;;;;18.83;9.18;;;0.50;99.90;;;;;;5010787;28;20042;-77
2021/01/26 01:20:55;;;;;;;18.80;8.35;;;0.50;99.90;;;;;;5011892;28;20095;-77
2021/01/26 01:23:20;;;;;;;19.92;9.23;;;0.50;99.90;;;;;;5012990;28;20065;-77
2021/01/26 01:25:47;;;;;;;17.77;7.65;;;0.50;99.90;;;;;;4996726;28;20079;-77
2021/01/26 01:28:12;;;;;;;14.13;7.30;;;0.70;99.90;;;;;;5009670;28;20513;-77
2021/01/26 01:30:38;;;;;;;16.55;8.35;;;0.70;99.90;;;;;;5012025;28;20048;-77
2021/01/26 01:33:05;;;;;;;18.17;7.45;;;0.70;99.90;;;;;;4996926;28;20525;-77
2021/01/26 01:35:31;;;;;;;17.75;7.78;;;0.70;99.90;;;;;;5017456;28;20052;-77
2021/01/26 01:37:56;;;;;;;17.70;9.15;;;0.70;99.90;;;;;;5014467;28;20025;-77
2021/01/26 01:40:33;;;;;;;15.27;8.50;;;0.70;99.90;;;;;;5015725;28;20132;-77
2021/01/26 01:42:59;;;;;;;13.25;6.93;;;0.60;99.90;;;;;;5015904;28;20491;-77
2021/01/26 01:45:26;;;;;;;13.38;7.35;;;0.60;99.90;;;;;;5014306;28;20065;-76
2021/01/26 01:47:53;;;;;;;13.07;6.95;;;0.60;99.90;;;;;;5012099;28;20736;-77
2021/01/26 01:50:25;;;;;;;16.50;7.53;;;0.70;99.90;;;;;;5014671;28;20049;-77
2021/01/26 01:52:56;;;;;;;16.52;7.03;;;0.70;99.90;;;;;;5014755;28;20056;-77
2021/01/26 01:55:24;;;;;;;13.45;7.57;;;0.70;99.90;;;;;;4995829;28;20033;-77
2021/01/26 01:58:02;;;;;;;14.38;7.50;;;0.70;99.90;;;;;;5014533;28;20117;-77
2021/01/26 02:00:28;;;;;;;12.30;6.93;;;0.70;99.90;;;;;;5013720;28;20124;-77
2021/01/26 02:03:18;;;;;;;16.77;7.15;;;0.70;99.90;;;;;;5016822;28;20029;-77
2021/01/26 02:05:43;;;;;;;13.30;6.95;;;0.70;99.90;;;;;;5014716;28;20083;-77
2021/01/26 02:08:26;;;;;;;13.63;6.30;;;0.70;99.90;;;;;;5011032;28;20042;-77
2021/01/26 02:10:51;;;;;;;12.85;6.95;;;0.80;99.90;;;;;;5015898;28;20034;-77
2021/01/26 02:13:17;;;;;;;15.27;7.75;;;0.80;99.90;;;;;;5017269;28;20041;-77
2021/01/26 02:15:43;;;;;;;14.15;7.30;;;0.80;99.90;;;;;;4995628;28;20042;-77
2021/01/26 02:18:15;;;;;;;11.50;6.13;;;0.80;99.90;;;;;;5013364;28;20442;-77
2021/01/26 02:21:30;;;;;;;15.70;6.75;;;0.90;99.90;;;;;;5012583;28;20042;-77
2021/01/26 02:24:14;;;;;;;14.00;6.80;;;0.90;99.90;;;;;;4968284;28;20041;-77
2021/01/26 02:26:58;;;;;;;17.42;6.97;;;0.90;99.90;;;;;;5011619;28;20498;-77
2021/01/26 02:29:49;;;;;;;16.75;6.97;;;0.90;99.90;;;;;;5009958;28;20034;-75
2021/01/26 02:32:44;;;;;;;17.83;6.95;;;0.80;99.90;;;;;;4998902;28;20147;-76
2021/01/26 02:35:24;;;;;;;15.35;7.90;;;0.90;99.90;;;;;;4999517;28;20034;-76
2021/01/26 02:38:21;;;;;;;13.75;7.25;;;0.90;99.90;;;;;;5007706;28;20065;-77
2021/01/26 02:41:17;;;;;;;21.67;7.47;;;0.90;99.90;;;;;;5000855;28;20488;-76
2021/01/26 02:44:07;;;;;;;19.35;7.65;;;0.90;99.90;;;;;;5006828;28;20038;-76
2021/01/26 02:46:50;;;;;;;18.20;7.65;;;1.00;99.90;;;;;;5009112;28;20498;-76
2021/01/26 02:49:32;;;;;;;17.83;7.70;;;0.90;99.90;;;;;;5008954;28;20149;-78
2021/01/26 02:52:10;;;;;;;14.93;7.32;;;0.90;99.90;;;;;;5009809;28;20065;-76
2021/01/26 02:55:00;;;;;;;17.02;8.20;;;0.90;99.90;;;;;;5013330;28;20038;-76
2021/01/26 02:57:44;;;;;;;24.77;9.27;;;0.90;99.90;;;;;;5011666;28;20045;-75
2021/01/26 03:00:20;;;;;;;21.48;8.70;;;0.90;99.90;;;;;;4987556;28;20402;-76
2021/01/26 03:02:49;;;;;;;17.65;8.73;;;0.90;99.90;;;;;;5008387;28;20109;-76
2021/01/26 03:05:24;;;;;;;19.55;8.73;;;1.00;99.90;;;;;;4991247;28;20033;-76
2021/01/26 03:08:03;;;;;;;15.70;8.35;;;0.90;99.90;;;;;;5005678;28;20116;-76
2021/01/26 03:10:39;;;;;;;19.23;8.80;;;0.90;99.90;;;;;;5006437;28;20120;-77
2021/01/26 03:13:09;;;;;;;14.68;7.70;;;0.90;99.90;;;;;;5008089;28;20060;-75
2021/01/26 03:16:06;;;;;;;21.10;7.38;;;0.90;99.90;;;;;;5017820;28;21449;-76
2021/01/26 03:18:39;;;;;;;20.00;8.57;;;0.90;99.90;;;;;;5003639;28;20030;-76
2021/01/26 03:21:06;;;;;;;19.13;7.85;;;0.90;99.90;;;;;;4988876;28;20065;-76
2021/01/26 03:23:43;;;;;;;17.85;7.70;;;0.90;99.90;;;;;;5011825;28;20034;-76
2021/01/26 03:26:14;;;;;;;15.02;8.02;;;0.90;99.90;;;;;;5010014;28;20066;-77
2021/01/26 03:28:43;;;;;;;22.17;8.30;;;0.90;99.90;;;;;;5005338;28;20124;-77
2021/01/26 03:31:11;;;;;;;17.02;8.18;;;0.90;99.90;;;;;;5008233;28;20121;-77
2021/01/26 03:33:43;;;;;;;16.48;8.10;;;0.90;99.90;;;;;;5008827;28;20037;-76
2021/01/26 03:36:09;;;;;;;20.33;8.90;;;0.90;99.90;;;;;;5007109;28;20709;-76
2021/01/26 03:38:34;;;;;;;16.75;8.35;;;0.90;99.90;;;;;;5003201;28;20224;-76
2021/01/26 03:41:02;;;;;;;17.65;8.30;;;0.80;99.90;;;;;;5009126;28;20038;-75
2021/01/26 03:43:28;;;;;;;15.32;8.07;;;1.00;99.90;;;;;;4991161;28;20426;-76
2021/01/26 03:46:15;;;;;;;20.30;7.40;;;0.90;99.90;;;;;;5012000;28;20034;-76
2021/01/26 03:48:59;;;;;;;16.08;7.90;;;0.90;99.90;;;;;;5003291;28;20034;-76
2021/01/26 03:51:39;;;;;;;16.52;8.30;;;0.90;99.90;;;;;;5006346;28;20041;-76
2021/01/26 03:54:48;;;;;;;16.27;7.75;;;0.90;99.90;;;;;;5011599;28;20078;-76
2021/01/26 03:57:38;;;;;;;19.48;8.35;;;0.90;99.90;;;;;;4930424;29;20378;-76
2021/01/26 04:00:32;;;;;;;16.90;7.95;;;0.90;99.90;;;;;;4909718;29;20044;-76
2021/01/26 04:03:15;;;;;;;20.48;9.02;;;0.90;99.90;;;;;;4993036;28;20045;-76
2021/01/26 04:06:10;;;;;;;19.52;7.72;;;0.90;99.90;;;;;;4992271;28;20041;-77
2021/01/26 04:08:38;;;;;;;17.65;8.07;;;0.90;99.90;;;;;;4999376;28;20126;-77
2021/01/26 04:11:29;;;;;;;15.07;7.45;;;0.90;99.90;;;;;;5008824;28;20038;-77
2021/01/26 04:14:00;;;;;;;16.35;7.45;;;0.90;99.90;;;;;;5001604;28;20077;-77
2021/01/26 04:16:33;;;;;;;18.15;7.63;;;0.90;99.90;;;;;;5004857;28;20030;-77
2021/01/26 04:19:01;;;;;;;18.42;7.88;;;0.90;99.90;;;;;;5008924;28;20040;-77
2021/01/26 04:21:32;;;;;;;20.33;8.48;;;0.90;99.90;;;;;;5009868;28;20091;-77
2021/01/26 04:23:58;;;;;;;16.17;7.57;;;0.90;99.90;;;;;;5011458;28;20038;-77
2021/01/26 04:26:26;;;;;;;19.88;7.85;;;0.90;99.90;;;;;;5008411;28;20050;-77
2021/01/26 04:28:51;;;;;;;12.88;7.03;;;1.00;99.90;;;;;;5004141;28;20061;-77
2021/01/26 04:31:19;;;;;;;15.38;7.15;;;1.00;99.90;;;;;;5009302;28;20476;-77
2021/01/26 04:33:45;;;;;;;14.35;7.18;;;1.00;99.90;;;;;;5005273;28;20076;-77
2021/01/26 04:36:13;;;;;;;17.15;6.28;;;1.10;99.90;;;;;;5013891;28;20057;-77
2021/01/26 04:38:39;;;;;;;19.73;7.32;;;1.10;99.90;;;;;;5007686;28;20040;-77
2021/01/26 04:41:15;;;;;;;20.45;7.22;;;1.10;99.90;;;;;;5005680;28;20038;-77
2021/01/26 04:43:51;;;;;;;17.33;6.50;;;1.10;99.90;;;;;;5005287;28;20076;-77
2021/01/26 04:46:58;;;;;;;17.25;6.50;;;1.20;99.90;;;;;;5005777;28;20787;-77
2021/01/26 04:49:49;;;;;;;14.50;6.75;;;1.20;99.90;;;;;;4929527;29;20043;-77
2021/01/26 04:52:30;;;;;;;14.15;6.03;;;1.20;99.90;;;;;;4933790;28;20092;-78
2021/01/26 04:55:01;;;;;;;13.88;5.82;;;1.20;99.90;;;;;;4989944;28;20530;-76
2021/01/26 04:58:05;;;;;;;12.93;5.40;;;1.30;99.90;;;;;;5009312;28;20049;-77
2021/01/26 05:00:56;;;;;;;11.90;5.67;;;1.30;99.90;;;;;;5014377;28;20068;-75
2021/01/26 05:03:59;;;;;;;16.80;5.95;;;1.30;99.90;;;;;;5011332;28;20045;-76
2021/01/26 05:06:33;;;;;;;14.02;6.10;;;1.30;99.90;;;;;;5018666;28;20792;-76
2021/01/26 05:09:01;;;;;;;11.25;4.90;;;1.40;99.90;;;;;;4992956;28;20034;-76
2021/01/26 05:11:32;;;;;;;10.80;5.38;;;1.40;99.90;;;;;;5016207;28;20148;-77
2021/01/26 05:14:05;;;;;;;15.38;6.10;;;1.40;99.90;;;;;;5014361;28;20102;-77
2021/01/26 05:16:35;;;;;;;12.97;5.83;;;1.40;99.90;;;;;;5002901;28;20581;-77
2021/01/26 05:19:12;;;;;;;11.30;5.43;;;1.40;99.90;;;;;;4993734;28;20546;-77
2021/01/26 05:21:48;;;;;;;17.58;5.90;;;1.40;99.90;;;;;;4996971;28;20041;-77
2021/01/26 05:24:32;;;;;;;10.02;4.88;;;1.40;99.90;;;;;;5015833;28;20065;-77
2021/01/26 05:27:00;;;;;;;14.13;5.90;;;1.40;99.90;;;;;;5015311;28;20502;-77
2021/01/26 05:29:26;;;;;;;10.63;5.18;;;1.40;99.90;;;;;;5013124;28;20308;-77
2021/01/26 05:31:59;;;;;;;12.40;5.20;;;1.50;99.90;;;;;;5009856;28;20107;-77
2021/01/26 05:34:26;;;;;;;12.43;6.22;;;1.40;99.90;;;;;;5014658;28;20490;-77
2021/01/26 05:36:52;;;;;;;11.65;5.55;;;1.50;99.90;;;;;;4988483;28;20122;-77
2021/01/26 05:39:32;;;;;;;10.80;5.97;;;1.40;99.90;;;;;;5013574;28;20144;-77
2021/01/26 05:41:58;;;;;;;18.25;5.68;;;1.40;99.90;;;;;;4997250;28;20065;-77
2021/01/26 05:44:24;;;;;;;10.55;4.72;;;1.40;99.90;;;;;;5010996;28;20507;-77
2021/01/26 05:46:50;;;;;;;11.63;5.80;;;1.50;99.90;;;;;;4994719;28;20046;-77
2021/01/26 05:49:35;;;;;;;12.05;5.55;;;1.50;99.90;;;;;;5002034;28;20072;-77
2021/01/26 05:52:03;;;;;;;10.05;5.00;;;1.50;99.90;;;;;;5010377;28;20605;-77
2021/01/26 05:54:31;;;;;;;14.25;5.35;;;1.50;99.90;;;;;;5011913;28;20133;-77
2021/01/26 05:56:57;;;;;;;16.40;5.38;;;1.50;99.90;;;;;;5012540;28;20038;-77
2021/01/26 05:59:34;;;;;;;13.68;5.07;;;1.50;99.90;;;;;;5004997;28;20092;-77
2021/01/26 06:02:20;;;;;;;8.95;4.65;;;1.50;99.90;;;;;;5007697;28;20597;-77
2021/01/26 06:04:46;;;;;;;15.52;4.90;;;1.50;99.90;;;;;;4992042;28;20045;-76
2021/01/26 06:07:21;;;;;;;14.95;3.78;;;1.50;99.90;;;;;;5006834;28;20122;-77
2021/01/26 06:09:48;;;;;;;8.77;3.38;;;1.50;99.90;;;;;;4987902;28;20044;-76
2021/01/26 06:12:34;;;;;;;7.65;3.75;;;1.60;99.90;;;;;;5014116;28;20192;-77
2021/01/26 06:15:01;;;;;;;12.60;3.55;;;1.60;99.90;;;;;;5007220;28;20411;-78
2021/01/26 06:17:36;;;;;;;9.25;3.35;;;1.60;99.90;;;;;;5009448;28;20081;-76
2021/01/26 06:20:09;;;;;;;7.55;3.75;;;1.60;99.90;;;;;;5008166;28;20037;-76
2021/01/26 06:22:36;;;;;;;6.97;3.40;;;1.70;99.90;;;;;;5008891;28;20038;-76
2021/01/26 06:25:07;;;;;;;11.88;3.83;;;1.70;99.90;;;;;;5007745;28;20414;-77
2021/01/26 06:28:14;;;;;;;3.60;2.55;;;1.70;99.90;;;;;;4990360;28;20042;-76
2021/01/26 06:31:05;;;;;;;7.30;2.63;;;1.70;99.90;;;;;;4924042;29;20028;-75
2021/01/26 06:33:46;;;;;;;5.38;2.75;;;1.70;99.90;;;;;;4928925;29;20039;-76
2021/01/26 06:36:53;;;;;;;7.30;2.63;;;1.70;99.90;;;;;;4988614;28;20042;-74
2021/01/26 06:39:28;;;;;;;5.28;2.28;;;1.80;99.90;;;;;;5003746;28;20030;-75
2021/01/26 06:41:53;;;;;;;8.57;3.55;;;1.80;99.90;;;;;;5012340;28;20083;-75
2021/01/26 06:44:48;;;;;;;9.88;3.17;;;1.70;99.90;;;;;;5016643;28;20041;-75
2021/01/26 06:47:20;;;;;;;;;;;1.70;99.90;;;;;;4984101;28;20069;-76
2021/01/26 06:50:02;;;;;;;5.13;3.10;;;1.70;99.90;;;;;;5007246;28;20114;-76
2021/01/26 06:52:30;;;;;;;5.75;2.83;;;1.70;99.90;;;;;;4990225;28;20497;-74
2021/01/26 06:55:11;;;;;;;8.30;2.88;;;1.70;99.90;;;;;;4987157;28;20117;-76
2021/01/26 06:57:57;;;;;;;7.78;3.25;;;1.70;99.90;;;;;;4988284;28;20084;-76
2021/01/26 07:00:41;;;;;;;12.27;3.85;;;1.70;99.90;;;;;;4991465;28;20038;-76
2021/01/26 07:03:26;;;;;;;8.73;3.20;;;1.70;99.90;;;;;;5011446;28;20040;-74
2021/01/26 07:06:16;;;;;;;8.82;2.95;;;1.70;99.90;;;;;;5003022;28;20042;-75
2021/01/26 07:08:58;;;;;;;10.77;2.67;;;1.70;99.90;;;;;;5012065;28;20042;-75
2021/01/26 07:11:39;;;;;;;8.05;2.95;;;1.70;99.90;;;;;;5009171;28;20484;-75
2021/01/26 07:14:43;;;;;;;16.33;3.58;;;1.70;99.90;;;;;;5014225;28;20398;-75
2021/01/26 07:17:09;;;;;;;11.70;2.97;;;1.70;99.90;;;;;;4976766;28;20063;-75
2021/01/26 07:20:09;;;;;;;14.50;3.08;;;1.80;99.90;;;;;;5014766;28;20097;-75
2021/01/26 07:23:02;;;;;;;6.53;2.70;;;1.70;99.90;;;;;;5010246;28;20049;-76
2021/01/26 07:25:30;;;;;;;7.70;2.53;;;1.70;99.90;;;;;;5013143;28;20060;-76
2021/01/26 07:28:11;;;;;;;13.32;3.03;;;1.70;99.90;;;;;;5013160;28;20096;-76
2021/01/26 07:30:43;;;;;;;7.45;3.35;;;1.70;99.90;;;;;;5012237;28;20034;-75
2021/01/26 07:33:14;;;;;;;6.93;2.65;;;1.70;99.90;;;;;;5001111;28;20034;-75
2021/01/26 07:36:04;;;;;;;9.95;3.00;;;1.60;99.90;;;;;;5008189;28;20911;-74
2021/01/26 07:38:48;;;;;;;8.05;3.28;;;1.60;99.90;;;;;;5008017;28;20048;-74
2021/01/26 07:41:51;;;;;;;10.68;3.00;;;1.60;99.90;;;;;;4994519;28;20043;-74
2021/01/26 07:44:39;;;;;;;4.88;2.65;;;1.60;99.90;;;;;;4991710;28;20054;-75
2021/01/26 07:47:13;;;;;;;10.32;2.85;;;1.60;99.90;;;;;;5011726;28;20088;-75
2021/01/26 07:49:56;;;;;;;9.10;2.83;;;1.60;99.90;;;;;;5010944;28;20649;-76
2021/01/26 07:52:27;;;;;;;11.27;3.08;;;1.70;99.90;;;;;;5008434;28;20129;-76
2021/01/26 07:55:31;;;;;;;10.63;2.35;;;1.70;99.90;;;;;;5009402;28;20037;-76
2021/01/26 07:58:10;;;;;;;6.18;2.53;;;1.80;99.90;;;;;;4988067;28;20121;-75
2021/01/26 08:00:48;;;;;;;12.13;3.13;;;1.80;99.90;;;;;;5008484;28;20061;-75
2021/01/26 08:03:20;;;;;;;9.50;3.20;;;1.90;99.90;;;;;;5008879;28;20433;-75
2021/01/26 08:06:00;;;;;;;7.45;2.83;;;2.10;99.90;;;;;;5010936;28;20091;-75
2021/01/26 08:08:36;;;;;;;7.10;2.38;;;2.10;99.90;;;;;;5008724;28;20037;-75
2021/01/26 08:11:21;;;;;;;9.23;2.53;;;2.20;99.90;;;;;;5009996;28;20130;-75
2021/01/26 08:13:52;;;;;;;10.05;2.70;;;2.20;99.90;;;;;;5011570;28;20391;-75
2021/01/26 08:16:39;;;;;;;7.45;2.85;;;2.20;99.90;;;;;;5009668;28;20261;-74
2021/01/26 08:19:21;;;;;;;9.65;3.30;;;2.20;99.90;;;;;;5010458;28;20061;-75
2021/01/26 08:21:48;;;;;;;13.35;3.53;;;2.20;99.90;;;;;;4994902;28;20029;-75
2021/01/26 08:24:23;;;;;;;6.60;2.30;;;2.20;99.90;;;;;;5013244;28;20034;-75
2021/01/26 08:26:50;;;;;;;14.73;3.13;;;2.30;99.90;;;;;;4993959;28;20489;-75
2021/01/26 08:29:37;;;;;;;11.25;2.78;;;2.30;99.90;;;;;;5014459;28;20053;-75
2021/01/26 08:32:27;;;;;;;13.43;2.88;;;2.30;99.90;;;;;;5017177;28;20223;-75
2021/01/26 08:35:09;;;;;;;8.30;3.40;;;2.30;99.90;;;;;;5015746;28;20030;-75
2021/01/26 08:37:41;;;;;;;9.57;2.95;;;2.30;99.90;;;;;;5012183;28;20034;-75
2021/01/26 08:40:17;;;;;;;17.83;3.63;;;2.30;99.90;;;;;;4999807;28;20069;-76
2021/01/26 08:42:42;;;;;;;10.05;4.35;;;2.20;99.90;;;;;;5005524;28;20102;-76
2021/01/26 08:45:26;;;;;;;9.18;4.00;;;2.20;99.90;;;;;;5015023;28;20126;-75
2021/01/26 08:47:55;;;;;;;10.80;3.88;;;2.20;99.90;;;;;;5012262;28;20033;-75
2021/01/26 08:50:29;;;;;;;11.43;4.82;;;2.20;99.90;;;;;;5011683;28;20042;-74
2021/01/26 08:53:15;;;;;;;9.25;3.95;;;2.10;99.90;;;;;;5017284;28;20044;-75
2021/01/26 08:55:44;;;;;;;13.07;4.40;;;2.10;99.90;;;;;;5019856;28;20057;-75
2021/01/26 08:58:34;;;;;;;10.40;4.25;;;2.10;99.90;;;;;;5009346;28;20033;-75
2021/01/26 09:01:00;;;;;;;9.80;4.25;;;2.10;99.90;;;;;;5014038;28;20579;-75
2021/01/26 09:03:29;;;;;;;8.20;3.80;;;2.10;99.90;;;;;;5012584;28;20505;-75
2021/01/26 09:06:07;;;;;;;8.50;4.22;;;2.10;99.90;;;;;;5013218;28;20160;-75
2021/01/26 09:08:42;;;;;;;27.00;3.67;;;2.10;99.90;;;;;;5011718;28;20510;-74
2021/01/26 09:11:31;;;;;;;14.55;4.93;;;2.10;99.90;;;;;;5014723;28;20052;-75
2021/01/26 09:14:16;;;;;;;10.82;4.15;;;2.10;99.90;;;;;;5017307;28;20030;-75
2021/01/26 09:16:43;;;;;;;9.05;3.65;;;2.10;99.90;;;;;;5015573;28;20038;-74
2021/01/26 09:19:24;;;;;;;11.95;4.43;;;2.10;99.90;;;;;;5015213;28;20434;-75
2021/01/26 09:21:50;;;;;;;14.48;4.88;;;2.20;99.90;;;;;;5014942;28;20154;-74
2021/01/26 09:24:24;;;;;;;14.30;3.95;;;2.20;99.90;;;;;;5012942;28;20693;-75
2021/01/26 09:26:50;;;;;;;13.93;3.25;;;2.20;99.90;;;;;;5017985;28;20053;-74
2021/01/26 09:29:24;;;;;;;8.10;3.25;;;2.20;99.90;;;;;;5015767;28;20041;-75
2021/01/26 09:31:50;;;;;;;10.00;3.47;;;2.30;99.90;;;;;;5027404;28;20065;-73
2021/01/26 09:34:28;;;;;;;8.00;3.33;;;2.30;99.90;;;;;;5018253;28;20046;-74
2021/01/26 09:37:22;;;;;;;12.07;3.70;;;2.40;99.90;;;;;;5015835;28;20398;-74
2021/01/26 09:39:48;;;;;;;9.27;3.65;;;2.50;99.90;;;;;;5012001;28;20026;-74
2021/01/26 09:42:21;;;;;;;9.35;2.70;;;2.60;99.90;;;;;;5013955;28;20043;-72
2021/01/26 09:45:00;;;;;;;9.50;3.65;;;2.70;99.90;;;;;;5013052;28;20092;-74
2021/01/26 09:47:30;;;;;;;7.20;2.90;;;2.70;99.90;;;;;;5010121;28;20723;-74
2021/01/26 09:50:08;;;;;;;7.88;3.00;;;2.80;99.90;;;;;;5010358;28;20121;-76
2021/01/26 09:52:34;;;;;;;10.40;2.72;;;2.80;99.90;;;;;;5017656;28;20038;-76
2021/01/26 09:55:03;;;;;;;7.45;2.50;;;2.70;99.90;;;;;;4990249;28;20026;-74
2021/01/26 09:57:29;;;;;;;12.32;2.60;;;2.70;99.90;;;;;;5008172;28;20412;-74
2021/01/26 09:59:56;;;;;;;8.00;2.50;;;2.70;99.90;;;;;;5008919;28;20030;-76
2021/01/26 10:02:23;;;;;;;6.32;2.15;;;2.70;99.90;;;;;;5008951;28;20034;-76
2021/01/26 10:04:49;;;;;;;8.48;2.42;;;2.70;99.90;;;;;;5011346;28;20285;-75
2021/01/26 10:07:18;;;;;;;7.88;2.22;;;2.70;99.90;;;;;;5007453;28;20041;-75
2021/01/26 10:09:44;;;;;;;12.82;2.22;;;2.70;99.90;;;;;;5009265;28;20045;-75
2021/01/26 10:12:45;;;;;;;7.00;2.35;;;2.70;99.90;;;;;;4994045;28;20118;-76
2021/01/26 10:15:13;;;;;;;9.93;2.47;;;2.80;99.90;;;;;;4990428;28;20095;-75
2021/01/26 10:17:47;;;;;;;9.68;2.13;;;2.90;99.90;;;;;;5005752;28;20061;-75
2021/01/26 10:20:20;;;;;;;;;;;3.00;98.00;;;;;;5012200;28;20128;-76
2021/01/26 10:22:45;;;;;;;7.93;1.95;;;3.20;99.20;;;;;;5011388;28;20349;-76
2021/01/26 10:25:13;;;;;;;7.03;2.28;;;3.20;96.30;;;;;;5013635;28;20065;-76
2021/01/26 10:27:38;;;;;;;7.13;2.50;;;3.40;96.60;;;;;;5010717;28;20030;-75
2021/01/26 10:30:16;;;;;;;7.65;2.60;;;3.50;94.50;;;;;;4989420;28;20045;-76
2021/01/26 10:32:46;;;;;;;4.82;1.92;;;3.80;95.80;;;;;;4984699;28;20053;-77
2021/01/26 10:35:25;;;;;;;3.65;1.95;;;3.80;94.40;;;;;;5010120;28;20513;-76
2021/01/26 10:37:51;;;;;;;7.78;2.25;;;3.70;93.20;;;;;;4985179;28;20754;-76
2021/01/26 10:40:30;;;;;;;9.68;2.00;;;3.80;93.30;;;;;;4988701;28;20092;-77
2021/01/26 10:43:04;;;;;;;5.75;1.85;;;3.70;93.30;;;;;;5010045;28;20041;-77
2021/01/26 10:45:53;;;;;;;5.78;1.90;;;3.50;92.10;;;;;;4985713;28;20034;-77
2021/01/26 10:48:33;;;;;;;5.65;1.70;;;3.40;91.60;;;;;;5006852;28;20051;-77
2021/01/26 10:51:26;;;;;;;8.77;1.88;;;3.30;93.00;;;;;;5014143;28;20045;-77
2021/01/26 10:53:51;;;;;;;6.85;2.22;;;3.20;92.30;;;;;;5013618;28;20033;-77
2021/01/26 10:56:17;;;;;;;7.85;1.98;;;3.20;92.10;;;;;;5012889;28;20034;-77
2021/01/26 10:58:46;;;;;;;9.23;2.00;;;3.20;92.80;;;;;;5011035;28;20030;-76
2021/01/26 11:01:17;;;;;;;7.38;2.22;;;3.20;93.60;;;;;;5012675;28;20034;-78
2021/01/26 11:03:42;;;;;;;6.07;2.45;;;3.20;92.60;;;;;;4998326;28;20070;-77
2021/01/26 11:06:08;;;;;;;7.38;2.03;;;3.20;92.70;;;;;;5013441;28;20280;-78
2021/01/26 11:08:34;;;;;;;6.22;2.17;;;3.10;91.70;;;;;;5007529;28;20049;-76
2021/01/26 11:11:00;;;;;;;6.72;2.20;;;3.10;93.10;;;;;;5013987;28;20123;-76
2021/01/26 11:13:28;;;;;;;5.47;1.90;;;3.20;92.70;;;;;;5008398;28;20037;-78
2021/01/26 11:15:53;;;;;;;10.05;2.22;;;3.10;92.20;;;;;;4995485;28;20146;-77
2021/01/26 11:18:19;;;;;;;6.65;2.22;;;3.10;92.20;;;;;;4998882;28;20092;-77
2021/01/26 11:20:44;;;;;;;9.02;2.33;;;3.10;92.30;;;;;;5006885;28;20029;-76
2021/01/26 11:23:10;;;;;;;6.72;1.90;;;3.10;93.00;;;;;;5008794;28;20042;-76
2021/01/26 11:25:38;;;;;;;4.57;1.90;;;3.10;91.80;;;;;;5005090;28;20900;-76
2021/01/26 11:28:05;;;;;;;5.80;1.88;;;3.20;93.80;;;;;;5010615;28;20402;-75
2021/01/26 11:30:31;;;;;;;7.20;2.10;;;3.20;91.50;;;;;;5011985;28;20045;-75
2021/01/26 11:32:57;;;;;;;4.57;1.73;;;3.30;90.70;;;;;;5011979;28;20536;-76
2021/01/26 11:35:26;;;;;;;9.50;1.67;;;3.30;89.50;;;;;;5003903;28;20042;-75
2021/01/26 11:37:52;;;;;;;4.18;1.70;;;3.40;88.80;;;;;;4997964;28;20112;-76
2021/01/26 11:40:19;;;;;;;9.15;2.60;;;3.30;85.70;;;;;;5001407;28;20040;-76
2021/01/26 11:42:45;;;;;;;5.70;1.65;;;3.40;87.30;;;;;;4956331;28;20542;-75
2021/01/26 11:45:15;;;;;;;3.47;1.35;;;3.50;88.20;;;;;;4957804;28;20033;-76
2021/01/26 11:47:41;;;;;;;9.20;2.00;;;3.60;87.20;;;;;;4965899;28;20030;-76
2021/01/26 11:50:09;;;;;;;4.70;1.85;;;3.60;82.30;;;;;;4959661;28;20045;-75
2021/01/26 11:52:35;;;;;;;6.75;1.65;;;3.50;84.30;;;;;;4985050;28;20042;-76
2021/01/26 11:55:05;;;;;;;10.02;1.77;;;3.60;84.70;;;;;;4956216;28;20124;-76
2021/01/26 11:57:31;;;;;;;6.38;1.67;;;3.60;82.00;;;;;;4976389;28;20046;-76
2021/01/26 11:59:58;;;;;;;6.85;1.90;;;3.70;80.70;;;;;;4997783;28;20514;-74
2021/01/26 12:02:25;;;;;;;9.02;2.22;;;3.80;79.60;;;;;;4984503;28;20041;-75
2021/01/26 12:04:50;;;;;;;12.15;2.67;;;3.80;78.70;;;;;;5008309;28;20105;-75
2021/01/26 12:07:16;;;;;;;9.68;2.30;;;3.80;80.00;;;;;;4959407;28;20066;-75
2021/01/26 12:09:42;;;;;;;15.27;2.58;;;3.90;79.90;;;;;;5006651;28;20029;-75
2021/01/26 12:12:08;;;;;;;7.70;2.40;;;3.90;79.20;;;;;;4924193;28;20072;-75
2021/01/26 12:14:34;;;;;;;4.80;2.15;;;4.00;78.40;;;;;;4924935;28;20107;-75
2021/01/26 12:16:59;;;;;;;6.47;1.92;;;4.20;79.40;;;;;;4963316;28;20037;-75
2021/01/26 12:19:25;;;;;;;6.30;2.30;;;4.30;79.50;;;;;;4960084;28;20056;-75
2021/01/26 12:21:50;;;;;;;10.20;2.10;;;4.40;77.20;;;;;;4959720;28;20059;-75
2021/01/26 12:24:16;;;;;;;6.60;2.35;;;4.40;77.10;;;;;;4937986;28;20044;-74
2021/01/26 12:26:42;;;;;;;8.02;1.80;;;4.40;78.50;;;;;;4955486;28;20048;-74
2021/01/26 12:29:07;;;;;;;5.10;2.05;;;4.10;74.90;;;;;;4960673;28;20057;-75
2021/01/26 12:31:33;;;;;;;9.43;2.55;;;4.10;78.40;;;;;;4958765;28;20034;-73
2021/01/26 12:33:58;;;;;;;7.65;2.10;;;4.20;79.20;;;;;;4945394;28;20199;-73
2021/01/26 12:36:24;;;;;;;15.75;2.50;;;4.20;78.90;;;;;;4984471;28;20120;-74
2021/01/26 12:38:50;;;;;;;5.32;2.40;;;4.30;77.70;;;;;;4980759;28;20563;-74
2021/01/26 12:41:15;;;;;;;3.65;2.00;;;4.20;76.90;;;;;;4983253;28;20046;-74
2021/01/26 12:43:43;;;;;;;9.27;2.60;;;4.30;79.80;;;;;;4973212;28;20073;-74
2021/01/26 12:46:08;;;;;;;11.13;2.60;;;4.30;78.20;;;;;;5008843;28;20044;-75
2021/01/26 12:48:34;;;;;;;16.77;2.75;;;4.30;78.30;;;;;;4981686;28;20038;-75
2021/01/26 12:50:59;;;;;;;5.68;2.10;;;4.10;76.80;;;;;;4982692;28;20077;-74
2021/01/26 12:53:25;;;;;;;7.32;2.10;;;4.10;76.00;;;;;;4984190;28;20414;-75
2021/01/26 12:55:51;;;;;;;4.97;1.70;;;4.20;77.80;;;;;;4983074;28;20129;-75
2021/01/26 12:58:16;;;;;;;8.52;3.25;;;4.20;77.00;;;;;;4958684;28;20053;-74
2021/01/26 13:00:42;;;;;;;10.82;1.92;;;4.20;78.00;;;;;;4992403;28;20045;-74
2021/01/26 13:03:07;;;;;;;7.47;2.28;;;4.10;76.00;;;;;;4977253;28;20042;-74
2021/01/26 13:05:33;;;;;;;14.02;2.40;;;4.20;78.70;;;;;;5007717;28;20037;-75
2021/01/26 13:07:59;;;;;;;5.35;2.00;;;4.20;77.50;;;;;;4950151;28;20063;-74
2021/01/26 13:10:25;;;;;;;5.75;2.17;;;4.30;78.60;;;;;;4987613;28;20061;-75
2021/01/26 13:12:51;;;;;;;7.70;2.25;;;4.40;78.10;;;;;;4984763;28;20061;-75
2021/01/26 13:15:19;;;;;;;9.20;2.45;;;4.30;76.60;;;;;;4977667;28;20103;-74
2021/01/26 13:17:45;;;;;;;9.02;2.55;;;4.20;76.00;;;;;;4963842;28;20092;-74
2021/01/26 13:20:12;;;;;;;7.63;2.35;;;4.20;75.70;;;;;;5012036;28;20515;-75
2021/01/26 13:22:42;;;;;;;6.90;1.90;;;4.40;76.70;;;;;;4918200;28;20030;-76